createdAt,value
2023-07-15T00:00:51.093Z,4.63
2023-07-15T00:01:51.250Z,4.06
2023-07-15T00:02:51.171Z,3.91
2023-07-15T00:03:51.213Z,4.12
2023-07-15T00:04:51.195Z,4.13
2023-07-15T00:05:51.288Z,4.14
2023-07-15T00:06:51.338Z,4.55
2023-07-15T00:07:51.377Z,4.11
2023-07-15T00:08:51.413Z,5.00
2023-07-15T00:09:51.377Z,4.37
2023-07-15T00:10:51.741Z,4.45
2023-07-15T00:11:51.440Z,4.03
2023-07-15T00:12:51.615Z,4.25
2023-07-15T00:13:51.632Z,4.17
2023-07-15T00:14:51.649Z,4.30
2023-07-15T00:15:51.692Z,5.23
2023-07-15T00:16:51.713Z,4.20
2023-07-15T00:17:51.842Z,4.22
2023-07-15T00:18:51.718Z,4.53
2023-07-15T00:19:51.699Z,4.28
2023-07-15T00:20:51.745Z,4.30
2023-07-15T00:21:51.723Z,4.95
2023-07-15T00:22:51.838Z,4.95
2023-07-15T00:23:51.792Z,5.07
2023-07-15T00:24:51.870Z,4.22
2023-07-15T00:25:51.916Z,4.12
2023-07-15T00:26:51.913Z,4.22
2023-07-15T00:27:51.910Z,4.67
2023-07-15T00:28:51.959Z,4.03
2023-07-15T00:29:51.986Z,4.46
2023-07-15T00:30:52.041Z,4.47
2023-07-15T00:31:52.156Z,5.04
2023-07-15T00:32:52.190Z,4.80
2023-07-15T00:33:52.179Z,4.61
2023-07-15T00:34:52.255Z,4.77
2023-07-15T00:35:52.274Z,4.05
2023-07-15T00:36:52.303Z,4.70
2023-07-15T00:37:52.376Z,4.28
2023-07-15T00:38:52.394Z,5.24
2023-07-15T00:39:52.463Z,4.94
2023-07-15T00:40:52.525Z,4.46
2023-07-15T00:41:52.576Z,5.10
2023-07-15T00:42:52.637Z,4.59
2023-07-15T00:43:52.645Z,4.47
2023-07-15T00:44:52.698Z,4.33
2023-07-15T00:45:52.782Z,5.14
2023-07-15T00:46:52.816Z,4.23
2023-07-15T00:47:52.869Z,4.41
2023-07-15T00:48:52.930Z,4.48
2023-07-15T00:49:52.985Z,5.46
2023-07-15T00:50:53.035Z,4.38
2023-07-15T00:51:53.123Z,4.39
2023-07-15T00:52:53.179Z,4.68
2023-07-15T00:53:53.223Z,4.66
2023-07-15T00:54:53.326Z,4.57
2023-07-15T00:55:53.329Z,4.22
2023-07-15T00:56:53.404Z,5.51
2023-07-15T00:57:53.456Z,5.02
2023-07-15T00:58:53.517Z,4.82
2023-07-15T00:59:53.679Z,5.15
2023-07-15T01:00:53.625Z,5.14
2023-07-15T01:01:53.620Z,4.48
2023-07-15T01:02:53.724Z,4.79
2023-07-15T01:03:53.694Z,5.13
2023-07-15T01:04:53.711Z,4.21
2023-07-15T01:05:53.710Z,4.42
2023-07-15T01:06:53.727Z,4.25
2023-07-15T01:07:53.696Z,4.76
2023-07-15T01:08:53.734Z,4.57
2023-07-15T01:09:53.748Z,4.56
2023-07-15T01:10:54.203Z,4.52
2023-07-15T01:11:53.753Z,5.44
2023-07-15T01:12:53.754Z,4.64
2023-07-15T01:13:53.772Z,4.82
2023-07-15T01:14:53.740Z,5.89
2023-07-15T01:15:53.806Z,5.26
2023-07-15T01:16:53.721Z,4.95
2023-07-15T01:17:53.813Z,5.06
2023-07-15T01:18:53.724Z,4.56
2023-07-15T01:19:53.729Z,4.89
2023-07-15T01:20:53.755Z,5.03
2023-07-15T01:21:53.779Z,4.91
2023-07-15T01:22:53.749Z,4.99
2023-07-15T01:23:53.749Z,5.02
2023-07-15T01:24:53.765Z,5.45
2023-07-15T01:25:53.748Z,4.25
2023-07-15T01:26:53.772Z,4.91
2023-07-15T01:27:53.731Z,4.39
2023-07-15T01:28:53.771Z,4.64
2023-07-15T01:29:53.778Z,5.34
2023-07-15T01:30:53.913Z,5.39
2023-07-15T01:31:53.828Z,5.05
2023-07-15T01:32:53.895Z,4.54
2023-07-15T01:33:53.835Z,4.37
2023-07-15T01:34:53.857Z,4.43
2023-07-15T01:35:53.924Z,5.01
2023-07-15T01:36:53.952Z,5.27
2023-07-15T01:37:53.928Z,5.36
2023-07-15T01:38:53.917Z,5.60
2023-07-15T01:39:53.902Z,4.90
2023-07-15T01:40:53.953Z,4.62
2023-07-15T01:41:53.962Z,5.01
2023-07-15T01:42:53.977Z,5.03
2023-07-15T01:43:53.969Z,5.23
2023-07-15T01:44:53.978Z,4.92
2023-07-15T01:45:54.019Z,5.33
2023-07-15T01:46:54.133Z,5.35
2023-07-15T01:47:54.113Z,5.56
2023-07-15T01:48:54.106Z,5.99
2023-07-15T01:49:54.111Z,6.06
2023-07-15T01:50:54.194Z,5.85
2023-07-15T01:51:54.159Z,5.09
2023-07-15T01:52:54.186Z,5.11
2023-07-15T01:53:54.198Z,4.96
2023-07-15T01:54:54.264Z,4.68
2023-07-15T01:55:54.281Z,5.42
2023-07-15T01:56:54.322Z,4.37
2023-07-15T01:57:54.333Z,5.32
2023-07-15T01:58:54.354Z,4.59
2023-07-15T01:59:54.428Z,5.78
2023-07-15T02:00:54.582Z,4.60
2023-07-15T02:01:54.540Z,5.13
2023-07-15T02:02:54.741Z,5.03
2023-07-15T02:03:54.752Z,5.04
2023-07-15T02:04:54.669Z,5.13
2023-07-15T02:05:54.762Z,5.72
2023-07-15T02:06:54.847Z,5.35
2023-07-15T02:07:54.832Z,4.79
2023-07-15T02:08:56.679Z,5.51
2023-07-15T02:09:54.918Z,5.13
2023-07-15T02:10:54.869Z,5.24
2023-07-15T02:11:54.867Z,5.50
2023-07-15T02:12:54.856Z,5.74
2023-07-15T02:13:54.843Z,5.03
2023-07-15T02:14:54.860Z,5.20
2023-07-15T02:15:54.848Z,5.34
2023-07-15T02:16:54.900Z,5.17
2023-07-15T02:17:54.905Z,4.89
2023-07-15T02:18:54.827Z,5.98
2023-07-15T02:19:54.835Z,5.31
2023-07-15T02:20:54.875Z,5.12
2023-07-15T02:21:54.808Z,5.54
2023-07-15T02:22:54.819Z,5.66
2023-07-15T02:23:54.777Z,4.89
2023-07-15T02:24:54.806Z,5.26
2023-07-15T02:25:54.776Z,5.48
2023-07-15T02:26:55.700Z,5.92
2023-07-15T02:27:54.792Z,5.62
2023-07-15T02:28:54.778Z,5.26
2023-07-15T02:29:54.763Z,5.49
2023-07-15T02:30:54.769Z,5.20
2023-07-15T02:31:54.747Z,5.51
2023-07-15T02:32:54.769Z,5.20
2023-07-15T02:33:54.728Z,5.55
2023-07-15T02:34:54.691Z,5.33
2023-07-15T02:35:54.690Z,5.18
2023-07-15T02:36:54.702Z,4.99
2023-07-15T02:37:54.697Z,5.01
2023-07-15T02:38:54.657Z,5.91
2023-07-15T02:39:54.653Z,6.21
2023-07-15T02:40:54.674Z,6.21
2023-07-15T02:41:54.701Z,5.86
2023-07-15T02:42:54.619Z,5.78
2023-07-15T02:43:54.625Z,5.41
2023-07-15T02:44:54.640Z,4.88
2023-07-15T02:45:54.662Z,5.09
2023-07-15T02:46:54.658Z,6.20
2023-07-15T02:47:54.649Z,5.87
2023-07-15T02:48:54.650Z,5.26
2023-07-15T02:49:54.594Z,5.14
2023-07-15T02:50:54.615Z,5.18
2023-07-15T02:51:54.591Z,6.05
2023-07-15T02:52:54.578Z,5.80
2023-07-15T02:53:54.547Z,5.35
2023-07-15T02:54:54.565Z,5.38
2023-07-15T02:55:54.561Z,5.68
2023-07-15T02:56:54.573Z,4.85
2023-07-15T02:57:54.627Z,5.41
2023-07-15T02:58:54.581Z,5.26
2023-07-15T02:59:54.575Z,5.05
2023-07-15T03:00:54.608Z,5.13
2023-07-15T03:01:54.703Z,4.86
2023-07-15T03:02:54.684Z,5.39
2023-07-15T03:03:54.609Z,5.62
2023-07-15T03:04:54.682Z,5.38
2023-07-15T03:05:54.630Z,5.16
2023-07-15T03:06:54.648Z,5.70
2023-07-15T03:07:54.623Z,5.34
2023-07-15T03:08:54.652Z,5.52
2023-07-15T03:09:54.624Z,5.59
2023-07-15T03:10:54.670Z,5.69
2023-07-15T03:11:54.668Z,5.49
2023-07-15T03:12:54.671Z,5.69
2023-07-15T03:13:54.671Z,5.94
2023-07-15T03:14:54.680Z,5.18
2023-07-15T03:15:54.713Z,5.73
2023-07-15T03:16:54.757Z,6.14
2023-07-15T03:17:54.751Z,5.78
2023-07-15T03:18:54.713Z,5.85
2023-07-15T03:19:54.763Z,5.91
2023-07-15T03:20:54.715Z,5.39
2023-07-15T03:21:54.807Z,6.20
2023-07-15T03:22:54.771Z,4.97
2023-07-15T03:23:54.718Z,6.19
2023-07-15T03:24:54.725Z,6.30
2023-07-15T03:25:54.729Z,5.50
2023-07-15T03:26:54.778Z,5.25
2023-07-15T03:27:54.758Z,6.05
2023-07-15T03:28:54.785Z,5.73
2023-07-15T03:29:54.813Z,5.18
2023-07-15T03:30:54.846Z,5.44
2023-07-15T03:31:54.869Z,5.57
2023-07-15T03:32:55.081Z,5.80
2023-07-15T03:33:54.924Z,5.24
2023-07-15T03:34:54.931Z,5.86
2023-07-15T03:35:54.940Z,6.11
2023-07-15T03:36:54.942Z,5.96
2023-07-15T03:37:54.984Z,5.94
2023-07-15T03:38:54.957Z,5.41
2023-07-15T03:39:54.996Z,5.22
2023-07-15T03:40:55.028Z,6.57
2023-07-15T03:41:55.039Z,5.29
2023-07-15T03:42:55.083Z,6.78
2023-07-15T03:43:55.086Z,6.13
2023-07-15T03:44:55.127Z,5.95
2023-07-15T03:45:55.203Z,5.91
2023-07-15T03:46:55.163Z,5.60
2023-07-15T03:47:55.210Z,6.66
2023-07-15T03:48:55.197Z,6.61
2023-07-15T03:49:55.253Z,5.82
2023-07-15T03:50:55.217Z,5.56
2023-07-15T03:51:55.275Z,6.20
2023-07-15T03:52:55.265Z,4.80
2023-07-15T03:53:55.291Z,5.40
2023-07-15T03:54:55.318Z,5.15
2023-07-15T03:55:55.356Z,5.41
2023-07-15T03:56:55.385Z,7.15
2023-07-15T03:57:55.417Z,5.49
2023-07-15T03:58:55.446Z,6.02
2023-07-15T03:59:55.457Z,6.03
2023-07-15T04:00:55.450Z,5.70
2023-07-15T04:01:56.334Z,5.91
2023-07-15T04:02:55.552Z,6.10
2023-07-15T04:03:55.653Z,5.88
2023-07-15T04:04:55.597Z,6.05
2023-07-15T04:05:55.628Z,6.09
2023-07-15T04:06:55.651Z,5.90
2023-07-15T04:07:55.688Z,5.53
2023-07-15T04:08:55.747Z,5.93
2023-07-15T04:09:55.789Z,5.12
2023-07-15T04:10:55.834Z,5.62
2023-07-15T04:11:55.857Z,5.68
2023-07-15T04:12:55.857Z,5.59
2023-07-15T04:13:55.933Z,5.77
2023-07-15T04:14:55.959Z,5.65
2023-07-15T04:15:56.075Z,6.09
2023-07-15T04:16:56.057Z,5.40
2023-07-15T04:17:56.143Z,6.03
2023-07-15T04:18:56.152Z,6.01
2023-07-15T04:19:56.162Z,5.96
2023-07-15T04:20:56.280Z,5.38
2023-07-15T04:21:56.299Z,5.59
2023-07-15T04:22:56.342Z,6.44
2023-07-15T04:23:58.585Z,5.63
2023-07-15T04:24:56.414Z,5.79
2023-07-15T04:25:56.471Z,6.01
2023-07-15T04:26:56.529Z,5.77
2023-07-15T04:27:56.686Z,5.62
2023-07-15T04:28:56.642Z,5.61
2023-07-15T04:29:56.725Z,5.45
2023-07-15T04:30:56.758Z,6.47
2023-07-15T04:31:56.834Z,6.29
2023-07-15T04:32:56.880Z,5.26
2023-07-15T04:33:56.898Z,5.40
2023-07-15T04:34:56.955Z,5.96
2023-07-15T04:35:57.034Z,5.93
2023-07-15T04:36:57.117Z,5.56
2023-07-15T04:37:57.112Z,5.71
2023-07-15T04:38:57.112Z,5.65
2023-07-15T04:39:57.147Z,5.79
2023-07-15T04:40:57.229Z,7.15
2023-07-15T04:41:57.322Z,6.14
2023-07-15T04:42:57.337Z,6.57
2023-07-15T04:43:57.355Z,6.50
2023-07-15T04:44:57.354Z,6.81
2023-07-15T04:45:57.492Z,6.35
2023-07-15T04:46:57.470Z,6.24
2023-07-15T04:47:57.540Z,6.57
2023-07-15T04:48:57.550Z,5.77
2023-07-15T04:49:57.600Z,6.10
2023-07-15T04:50:57.619Z,6.22
2023-07-15T04:51:57.656Z,6.09
2023-07-15T04:52:57.680Z,6.57
2023-07-15T04:53:57.721Z,6.03
2023-07-15T04:54:57.810Z,6.46
2023-07-15T04:55:57.776Z,6.57
2023-07-15T04:56:57.865Z,5.69
2023-07-15T04:57:57.884Z,5.42
2023-07-15T04:58:57.867Z,6.18
2023-07-15T04:59:57.933Z,6.26
2023-07-15T05:00:58.098Z,6.21
2023-07-15T05:01:58.019Z,5.99
2023-07-15T05:02:58.051Z,6.27
2023-07-15T05:03:58.099Z,5.83
2023-07-15T05:04:58.085Z,6.23
2023-07-15T05:05:58.105Z,5.97
2023-07-15T05:06:58.126Z,6.15
2023-07-15T05:07:59.275Z,6.36
2023-07-15T05:08:58.164Z,5.78
2023-07-15T05:09:58.183Z,5.15
2023-07-15T05:10:58.195Z,5.91
2023-07-15T05:11:58.258Z,5.11
2023-07-15T05:12:58.267Z,5.39
2023-07-15T05:13:58.243Z,5.45
2023-07-15T05:14:58.259Z,5.12
2023-07-15T05:15:58.315Z,5.50
2023-07-15T05:16:58.307Z,5.56
2023-07-15T05:17:58.340Z,5.73
2023-07-15T05:18:58.334Z,5.79
2023-07-15T05:19:58.360Z,5.58
2023-07-15T05:20:58.371Z,5.62
2023-07-15T05:21:58.383Z,6.16
2023-07-15T05:22:58.397Z,5.86
2023-07-15T05:23:58.373Z,5.57
2023-07-15T05:24:58.385Z,5.59
2023-07-15T05:25:58.460Z,5.62
2023-07-15T05:26:58.425Z,6.34
2023-07-15T05:27:58.423Z,5.53
2023-07-15T05:28:58.384Z,5.99
2023-07-15T05:29:58.386Z,5.57
2023-07-15T05:30:58.421Z,5.46
2023-07-15T05:31:58.497Z,6.30
2023-07-15T05:32:58.444Z,6.14
2023-07-15T05:33:58.422Z,5.67
2023-07-15T05:34:58.420Z,5.37
2023-07-15T05:35:58.441Z,5.50
2023-07-15T05:36:58.472Z,5.13
2023-07-15T05:37:58.442Z,5.65
2023-07-15T05:38:59.274Z,5.40
2023-07-15T05:39:58.419Z,6.43
2023-07-15T05:40:58.434Z,5.12
2023-07-15T05:41:58.472Z,5.50
2023-07-15T05:42:58.491Z,5.97
2023-07-15T05:43:58.513Z,5.22
2023-07-15T05:44:58.535Z,5.82
2023-07-15T05:45:58.600Z,5.24
2023-07-15T05:46:58.726Z,5.39
2023-07-15T05:47:58.825Z,6.02
2023-07-15T05:48:58.755Z,5.82
2023-07-15T05:49:58.837Z,5.28
2023-07-15T05:50:58.880Z,4.88
2023-07-15T05:51:58.972Z,4.96
2023-07-15T05:52:58.947Z,5.81
2023-07-15T05:53:58.998Z,5.71
2023-07-15T05:54:59.051Z,5.86
2023-07-15T05:55:59.073Z,5.13
2023-07-15T05:56:59.092Z,5.28
2023-07-15T05:57:59.137Z,5.05
2023-07-15T05:58:59.163Z,5.33
2023-07-15T05:59:59.141Z,6.25
2023-07-15T06:00:59.226Z,5.35
2023-07-15T06:01:59.218Z,6.40
2023-07-15T06:02:59.290Z,5.13
2023-07-15T06:03:59.372Z,4.95
2023-07-15T06:04:59.268Z,5.43
2023-07-15T06:05:59.297Z,4.96
2023-07-15T06:06:59.284Z,5.39
2023-07-15T06:07:59.293Z,5.45
2023-07-15T06:08:59.278Z,5.32
2023-07-15T06:09:59.332Z,5.36
2023-07-15T06:10:59.316Z,5.48
2023-07-15T06:11:59.696Z,5.30
2023-07-15T06:12:59.294Z,5.22
2023-07-15T06:13:59.309Z,5.35
2023-07-15T06:14:59.322Z,5.62
2023-07-15T06:15:59.457Z,5.05
2023-07-15T06:16:59.504Z,5.32
2023-07-15T06:17:59.604Z,5.39
2023-07-15T06:18:59.578Z,5.50
2023-07-15T06:19:59.625Z,5.28
2023-07-15T06:20:59.703Z,5.20
2023-07-15T06:21:59.764Z,4.86
2023-07-15T06:22:59.876Z,5.17
2023-07-15T06:23:59.872Z,5.98
2023-07-15T06:24:59.897Z,5.62
2023-07-15T06:25:59.973Z,5.33
2023-07-15T06:27:00.000Z,5.15
2023-07-15T06:27:59.989Z,5.44
2023-07-15T06:29:00.046Z,5.97
2023-07-15T06:30:00.065Z,5.18
2023-07-15T06:31:00.194Z,4.70
2023-07-15T06:32:00.200Z,5.26
2023-07-15T06:33:00.315Z,5.43
2023-07-15T06:34:00.287Z,5.01
2023-07-15T06:35:00.332Z,4.99
2023-07-15T06:36:00.370Z,4.77
2023-07-15T06:37:00.409Z,5.37
2023-07-15T06:38:00.430Z,5.49
2023-07-15T06:39:00.511Z,5.39
2023-07-15T06:40:00.502Z,5.03
2023-07-15T06:41:00.517Z,6.04
2023-07-15T06:42:00.588Z,5.00
2023-07-15T06:43:00.625Z,5.70
2023-07-15T06:44:00.575Z,5.81
2023-07-15T06:45:00.665Z,5.54
2023-07-15T06:46:00.638Z,5.28
2023-07-15T06:47:00.710Z,5.49
2023-07-15T06:48:00.700Z,5.11
2023-07-15T06:49:00.734Z,6.21
2023-07-15T06:50:00.722Z,5.29
2023-07-15T06:51:00.756Z,5.99
2023-07-15T06:52:00.769Z,5.19
2023-07-15T06:53:00.776Z,5.93
2023-07-15T06:54:00.771Z,6.43
2023-07-15T06:55:00.786Z,5.16
2023-07-15T06:56:09.866Z,5.31
2023-07-15T06:57:01.854Z,5.34
2023-07-15T06:58:00.871Z,6.12
2023-07-15T06:59:00.875Z,5.09
2023-07-15T07:00:00.856Z,5.28
2023-07-15T07:01:00.925Z,5.65
2023-07-15T07:02:00.860Z,5.57
2023-07-15T07:03:00.883Z,5.77
2023-07-15T07:04:00.818Z,5.08
2023-07-15T07:05:00.808Z,4.63
2023-07-15T07:06:00.888Z,6.13
2023-07-15T07:07:00.838Z,5.42
2023-07-15T07:08:00.820Z,5.29
2023-07-15T07:09:00.858Z,5.03
2023-07-15T07:10:00.906Z,5.15
2023-07-15T07:11:00.968Z,5.50
2023-07-15T07:12:01.028Z,6.28
2023-07-15T07:13:01.036Z,5.82
2023-07-15T07:14:01.088Z,5.42
2023-07-15T07:15:01.119Z,5.34
2023-07-15T07:16:01.150Z,5.11
2023-07-15T07:17:01.207Z,5.32
2023-07-15T07:18:01.272Z,5.02
2023-07-15T07:19:01.257Z,5.05
2023-07-15T07:20:03.818Z,5.27
2023-07-15T07:21:01.305Z,5.60
2023-07-15T07:22:01.288Z,5.17
2023-07-15T07:23:01.454Z,5.45
2023-07-15T07:24:01.227Z,5.40
2023-07-15T07:25:01.261Z,5.51
2023-07-15T07:26:01.249Z,5.01
2023-07-15T07:27:01.200Z,5.27
2023-07-15T07:28:01.251Z,5.38
2023-07-15T07:29:01.195Z,4.82
2023-07-15T07:30:01.280Z,5.28
2023-07-15T07:31:01.250Z,5.10
2023-07-15T07:32:01.188Z,4.87
2023-07-15T07:33:01.205Z,5.23
2023-07-15T07:34:01.147Z,5.01
2023-07-15T07:35:01.195Z,4.88
2023-07-15T07:36:01.177Z,5.09
2023-07-15T07:37:02.956Z,4.85
2023-07-15T07:38:01.173Z,5.41
2023-07-15T07:39:01.148Z,4.80
2023-07-15T07:40:01.138Z,5.52
2023-07-15T07:41:01.153Z,4.73
2023-07-15T07:42:01.116Z,5.18
2023-07-15T07:43:01.135Z,5.91
2023-07-15T07:44:01.148Z,5.23
2023-07-15T07:45:01.122Z,4.45
2023-07-15T07:46:01.132Z,4.84
2023-07-15T07:47:01.133Z,5.59
2023-07-15T07:48:01.101Z,5.61
2023-07-15T07:49:01.073Z,5.04
2023-07-15T07:50:01.148Z,5.05
2023-07-15T07:51:01.059Z,5.08
2023-07-15T07:52:01.074Z,4.81
2023-07-15T07:53:01.036Z,4.20
2023-07-15T07:54:01.088Z,5.33
2023-07-15T07:55:01.056Z,5.30
2023-07-15T07:56:01.051Z,4.73
2023-07-15T07:57:01.037Z,5.03
2023-07-15T07:58:01.031Z,4.94
2023-07-15T07:59:01.045Z,5.17
2023-07-15T08:00:01.038Z,5.12
2023-07-15T08:01:00.989Z,5.23
2023-07-15T08:02:00.996Z,4.88
2023-07-15T08:03:01.088Z,5.13
2023-07-15T08:04:01.049Z,4.77
2023-07-15T08:05:00.998Z,4.13
2023-07-15T08:06:00.972Z,4.52
2023-07-15T08:07:00.954Z,4.95
2023-07-15T08:08:00.955Z,5.14
2023-07-15T08:09:00.960Z,4.81
2023-07-15T08:10:00.986Z,5.15
2023-07-15T08:11:00.953Z,4.95
2023-07-15T08:12:00.959Z,5.02
2023-07-15T08:13:00.915Z,3.93
2023-07-15T08:14:00.923Z,4.58
2023-07-15T08:15:00.896Z,5.61
2023-07-15T08:16:00.922Z,4.39
2023-07-15T08:17:00.955Z,4.56
2023-07-15T08:18:00.925Z,5.06
2023-07-15T08:19:00.961Z,4.98
2023-07-15T08:20:00.962Z,4.59
2023-07-15T08:21:00.988Z,5.15
2023-07-15T08:22:01.075Z,5.18
2023-07-15T08:23:01.220Z,4.31
2023-07-15T08:24:01.172Z,4.69
2023-07-15T08:25:01.198Z,4.85
2023-07-15T08:26:01.219Z,4.75
2023-07-15T08:27:01.235Z,4.77
2023-07-15T08:28:01.210Z,4.81
2023-07-15T08:29:01.253Z,4.08
2023-07-15T08:30:01.312Z,5.16
2023-07-15T08:31:01.361Z,5.07
2023-07-15T08:32:01.445Z,4.14
2023-07-15T08:33:01.598Z,4.35
2023-07-15T08:34:01.493Z,4.60
2023-07-15T08:35:01.551Z,4.82
2023-07-15T08:36:01.571Z,4.64
2023-07-15T08:37:01.618Z,4.11
2023-07-15T08:38:01.606Z,5.09
2023-07-15T08:39:01.633Z,4.68
2023-07-15T08:40:01.650Z,5.07
2023-07-15T08:41:01.671Z,5.50
2023-07-15T08:42:01.769Z,4.32
2023-07-15T08:43:01.717Z,4.20
2023-07-15T08:44:01.757Z,4.80
2023-07-15T08:45:01.746Z,4.67
2023-07-15T08:46:01.806Z,5.02
2023-07-15T08:47:01.784Z,4.82
2023-07-15T08:48:01.802Z,4.58
2023-07-15T08:49:01.808Z,4.63
2023-07-15T08:50:01.769Z,4.94
2023-07-15T08:51:01.816Z,4.90
2023-07-15T08:52:01.852Z,4.56
2023-07-15T08:53:01.913Z,4.41
2023-07-15T08:54:02.001Z,5.04
2023-07-15T08:55:01.934Z,5.26
2023-07-15T08:56:01.959Z,4.52
2023-07-15T08:57:01.963Z,5.03
2023-07-15T08:58:01.951Z,5.15
2023-07-15T08:59:01.954Z,4.44
2023-07-15T09:00:01.926Z,5.11
2023-07-15T09:01:01.945Z,5.13
2023-07-15T09:02:02.013Z,4.91
2023-07-15T09:03:02.064Z,5.24
2023-07-15T09:04:02.090Z,5.19
2023-07-15T09:05:02.153Z,4.77
2023-07-15T09:06:02.087Z,5.42
2023-07-15T09:07:02.200Z,4.89
2023-07-15T09:08:02.191Z,5.27
2023-07-15T09:09:02.326Z,5.23
2023-07-15T09:10:02.404Z,5.02
2023-07-15T09:11:02.315Z,5.92
2023-07-15T09:12:02.370Z,4.85
2023-07-15T09:13:02.470Z,4.59
2023-07-15T09:14:02.374Z,5.17
2023-07-15T09:15:02.431Z,5.08
2023-07-15T09:16:02.557Z,4.85
2023-07-15T09:17:02.551Z,5.06
2023-07-15T09:18:02.595Z,5.14
2023-07-15T09:19:02.575Z,5.25
2023-07-15T09:20:02.583Z,4.83
2023-07-15T09:21:02.606Z,5.53
2023-07-15T09:22:02.577Z,5.47
2023-07-15T09:23:02.803Z,5.00
2023-07-15T09:24:02.615Z,5.15
2023-07-15T09:25:02.655Z,5.81
2023-07-15T09:26:02.676Z,5.30
2023-07-15T09:27:02.841Z,4.87
2023-07-15T09:28:02.728Z,4.80
2023-07-15T09:29:02.794Z,5.85
2023-07-15T09:30:02.851Z,5.99
2023-07-15T09:31:02.914Z,4.97
2023-07-15T09:32:02.957Z,5.84
2023-07-15T09:33:02.952Z,5.38
2023-07-15T09:34:02.934Z,5.44
2023-07-15T09:35:03.046Z,5.45
2023-07-15T09:36:03.108Z,4.85
2023-07-15T09:37:03.098Z,5.28
2023-07-15T09:38:03.060Z,4.95
2023-07-15T09:39:03.131Z,5.47
2023-07-15T09:40:03.185Z,6.05
2023-07-15T09:41:03.216Z,5.75
2023-07-15T09:42:03.276Z,5.52
2023-07-15T09:43:03.353Z,5.34
2023-07-15T09:44:03.410Z,5.31
2023-07-15T09:45:03.452Z,5.30
2023-07-15T09:46:03.522Z,5.39
2023-07-15T09:47:03.537Z,5.95
2023-07-15T09:48:03.680Z,5.50
2023-07-15T09:49:03.665Z,5.09
2023-07-15T09:50:03.691Z,5.40
2023-07-15T09:51:03.768Z,5.49
2023-07-15T09:52:03.844Z,5.45
2023-07-15T09:53:03.938Z,5.79
2023-07-15T09:54:03.927Z,4.76
2023-07-15T09:55:03.927Z,4.61
2023-07-15T09:56:03.964Z,4.83
2023-07-15T09:57:04.002Z,5.23
2023-07-15T09:58:03.968Z,4.62
2023-07-15T09:59:03.958Z,5.40
2023-07-15T10:00:04.093Z,4.67
2023-07-15T10:01:04.223Z,4.93
2023-07-15T10:02:04.157Z,5.11
2023-07-15T10:03:04.238Z,5.14
2023-07-15T10:04:04.296Z,4.40
2023-07-15T10:05:04.371Z,5.06
2023-07-15T10:06:04.350Z,3.94
2023-07-15T10:07:04.388Z,4.96
2023-07-15T10:08:04.424Z,4.67
2023-07-15T10:09:04.392Z,4.89
2023-07-15T10:10:04.449Z,4.98
2023-07-15T10:11:04.474Z,4.14
2023-07-15T10:12:04.553Z,5.24
2023-07-15T10:13:04.553Z,5.01
2023-07-15T10:14:04.577Z,4.86
2023-07-15T10:15:04.642Z,5.88
2023-07-15T10:16:04.683Z,4.82
2023-07-15T10:17:04.673Z,5.53
2023-07-15T10:18:04.750Z,5.37
2023-07-15T10:19:04.730Z,4.84
2023-07-15T10:20:04.778Z,4.61
2023-07-15T10:21:04.790Z,4.74
2023-07-15T10:22:04.805Z,4.76
2023-07-15T10:23:04.918Z,4.81
2023-07-15T10:24:04.848Z,5.50
2023-07-15T10:25:04.829Z,4.49
2023-07-15T10:26:04.813Z,4.34
2023-07-15T10:27:04.855Z,4.92
2023-07-15T10:28:04.917Z,5.27
2023-07-15T10:29:04.979Z,4.51
2023-07-15T10:30:05.030Z,3.90
2023-07-15T10:31:06.651Z,4.77
2023-07-15T10:32:05.128Z,5.34
2023-07-15T10:33:05.175Z,4.73
2023-07-15T10:34:05.129Z,4.49
2023-07-15T10:35:05.156Z,5.16
2023-07-15T10:36:05.228Z,4.09
2023-07-15T10:37:05.304Z,4.55
2023-07-15T10:38:05.345Z,4.06
2023-07-15T10:39:05.390Z,5.06
2023-07-15T10:40:05.367Z,4.54
2023-07-15T10:41:05.678Z,4.27
2023-07-15T10:42:05.464Z,4.99
2023-07-15T10:43:05.466Z,5.15
2023-07-15T10:44:05.478Z,4.81
2023-07-15T10:45:05.527Z,3.92
2023-07-15T10:46:05.514Z,4.54
2023-07-15T10:47:05.600Z,4.02
2023-07-15T10:48:05.608Z,4.72
2023-07-15T10:49:05.610Z,5.06
2023-07-15T10:50:05.666Z,4.10
2023-07-15T10:51:05.695Z,4.50
2023-07-15T10:52:05.719Z,4.22
2023-07-15T10:53:05.738Z,4.59
2023-07-15T10:54:05.717Z,4.68
2023-07-15T10:55:05.761Z,3.81
2023-07-15T10:56:05.809Z,4.91
2023-07-15T10:57:05.881Z,5.57
2023-07-15T10:58:05.949Z,5.17
2023-07-15T10:59:05.944Z,4.46
2023-07-15T11:00:08.714Z,6.12
2023-07-15T11:01:05.940Z,4.97
2023-07-15T11:02:05.953Z,5.27
2023-07-15T11:03:05.973Z,4.78
2023-07-15T11:04:05.921Z,5.01
2023-07-15T11:05:06.016Z,4.74
2023-07-15T11:06:07.906Z,4.32
2023-07-15T11:07:05.913Z,4.46
2023-07-15T11:08:05.909Z,4.08
2023-07-15T11:09:05.880Z,4.20
2023-07-15T11:10:05.865Z,4.34
2023-07-15T11:11:05.857Z,4.28
2023-07-15T11:12:08.111Z,3.81
2023-07-15T11:13:05.860Z,4.24
2023-07-15T11:14:05.869Z,4.56
2023-07-15T11:15:05.810Z,4.51
2023-07-15T11:16:05.917Z,4.92
2023-07-15T11:17:05.878Z,4.79
2023-07-15T11:18:05.873Z,4.66
2023-07-15T11:19:05.799Z,4.26
2023-07-15T11:20:05.813Z,3.73
2023-07-15T11:21:05.799Z,3.90
2023-07-15T11:22:05.801Z,4.06
2023-07-15T11:23:05.882Z,4.69
2023-07-15T11:24:05.838Z,4.30
2023-07-15T11:25:05.773Z,4.53
2023-07-15T11:26:05.765Z,3.93
2023-07-15T11:27:05.764Z,3.73
2023-07-15T11:28:05.779Z,3.47
2023-07-15T11:29:05.775Z,3.78
2023-07-15T11:30:05.727Z,3.37
2023-07-15T11:31:05.810Z,3.57
2023-07-15T11:32:05.756Z,2.99
2023-07-15T11:33:05.724Z,3.53
2023-07-15T11:34:05.695Z,3.51
2023-07-15T11:35:05.687Z,2.90
2023-07-15T11:36:05.692Z,3.17
2023-07-15T11:37:05.699Z,2.94
2023-07-15T11:38:05.695Z,3.18
2023-07-15T11:39:05.702Z,3.11
2023-07-15T11:40:06.610Z,2.98
2023-07-15T11:41:05.678Z,2.97
2023-07-15T11:42:05.663Z,3.07
2023-07-15T11:43:05.645Z,3.31
2023-07-15T11:44:05.683Z,3.17
2023-07-15T11:45:05.616Z,3.56
2023-07-15T11:46:05.709Z,3.49
2023-07-15T11:47:05.880Z,2.98
2023-07-15T11:48:05.640Z,3.05
2023-07-15T11:49:05.642Z,3.31
2023-07-15T11:50:05.622Z,2.81
2023-07-15T11:51:05.626Z,3.03
2023-07-15T11:52:05.597Z,3.33
2023-07-15T11:53:05.619Z,3.27
2023-07-15T11:54:05.574Z,2.89
2023-07-15T11:55:05.587Z,3.54
2023-07-15T11:56:05.580Z,3.44
2023-07-15T11:57:05.582Z,2.75
2023-07-15T11:58:05.571Z,2.93
2023-07-15T11:59:05.588Z,3.03
2023-07-15T12:00:05.564Z,2.77
2023-07-15T12:01:05.553Z,2.93
2023-07-15T12:02:05.605Z,2.99
2023-07-15T12:03:05.687Z,2.90
2023-07-15T12:04:05.539Z,2.95
2023-07-15T12:05:05.502Z,2.49
2023-07-15T12:06:05.500Z,2.89
2023-07-15T12:07:05.555Z,2.67
2023-07-15T12:08:05.507Z,2.99
2023-07-15T12:09:05.480Z,2.38
2023-07-15T12:10:05.552Z,2.70
2023-07-15T12:11:05.496Z,3.03
2023-07-15T12:12:05.486Z,3.12
2023-07-15T12:13:05.486Z,2.78
2023-07-15T12:14:05.519Z,3.09
2023-07-15T12:15:05.558Z,3.06
2023-07-15T12:16:05.629Z,2.59
2023-07-15T12:17:05.797Z,2.75
2023-07-15T12:18:05.695Z,3.19
2023-07-15T12:19:05.656Z,2.87
2023-07-15T12:20:05.721Z,2.70
2023-07-15T12:21:05.728Z,3.40
2023-07-15T12:22:05.788Z,2.89
2023-07-15T12:23:05.912Z,3.06
2023-07-15T12:24:05.793Z,2.71
2023-07-15T12:25:05.835Z,2.76
2023-07-15T12:26:05.883Z,3.44
2023-07-15T12:27:05.907Z,2.88
2023-07-15T12:28:05.991Z,4.27
2023-07-15T12:29:05.977Z,2.57
2023-07-15T12:30:06.039Z,2.71
2023-07-15T12:31:06.097Z,3.34
2023-07-15T12:32:06.112Z,2.79
2023-07-15T12:33:06.152Z,2.55
2023-07-15T12:34:06.126Z,2.76
2023-07-15T12:35:06.171Z,3.06
2023-07-15T12:36:06.214Z,3.21
2023-07-15T12:37:06.290Z,2.98
2023-07-15T12:38:06.281Z,2.77
2023-07-15T12:39:06.321Z,3.22
2023-07-15T12:40:06.361Z,2.98
2023-07-15T12:41:06.415Z,2.99
2023-07-15T12:42:06.419Z,2.65
2023-07-15T12:43:06.440Z,3.30
2023-07-15T12:44:06.488Z,2.91
2023-07-15T12:45:06.541Z,3.39
2023-07-15T12:46:06.613Z,2.94
2023-07-15T12:47:06.641Z,2.79
2023-07-15T12:48:06.668Z,3.35
2023-07-15T12:49:06.679Z,3.47
2023-07-15T12:50:06.699Z,3.31
2023-07-15T12:51:06.715Z,3.05
2023-07-15T12:52:06.719Z,2.91
2023-07-15T12:53:06.740Z,2.65
2023-07-15T12:54:06.794Z,3.21
2023-07-15T12:55:06.769Z,2.86
2023-07-15T12:56:06.807Z,3.06
2023-07-15T12:57:06.848Z,3.36
2023-07-15T12:58:06.885Z,2.54
2023-07-15T12:59:06.901Z,2.72
2023-07-15T13:00:06.953Z,2.50
2023-07-15T13:01:06.997Z,2.09
2023-07-15T13:02:07.032Z,3.04
2023-07-15T13:03:07.111Z,2.81
2023-07-15T13:04:07.182Z,2.38
2023-07-15T13:05:07.070Z,2.88
2023-07-15T13:06:07.100Z,2.29
2023-07-15T13:07:07.162Z,2.72
2023-07-15T13:08:07.154Z,2.86
2023-07-15T13:09:07.158Z,2.60
2023-07-15T13:10:07.233Z,3.16
2023-07-15T13:11:07.257Z,2.65
2023-07-15T13:12:08.191Z,2.62
2023-07-15T13:13:07.309Z,2.86
2023-07-15T13:14:07.341Z,3.04
2023-07-15T13:15:07.389Z,2.85
2023-07-15T13:16:07.569Z,2.67
2023-07-15T13:17:07.396Z,2.73
2023-07-15T13:18:07.482Z,2.82
2023-07-15T13:19:07.493Z,2.78